Terminal Aerodrome Forecast
Issued by NWS Boston, MA

Home | Current Version | Previous Version | Text Only | Print | Product List | Glossary Off
Versions: 1 2 3 4 5 6 7 8 9 10 11 12 13 14 15 16 17 18 19 20 21 22 23
000 FTUS41 KBOX 301728 TAFBDL TAF KBDL 301728Z 3018/3124 31010KT P6SM BKN050 FM310300 VRB03KT P6SM SCT250 FM311800 05004KT P6SM OVC070=

USA.gov is the U.S. government's official web portal to all federal, state and local government web resources and services.